Time;durP1;ratioP1;P1;durP2;ratioP2;P2;SDS_P1;SDS_P2;PMS_P1;PMS_P2;Temp;Humidity;BMP_temperature;BMP_pressure;BME280_temperature;BME280_humidity;BME280_pressure;Samples;Min_cycle;Max_cycle;Signal;HPM_P1;HPM_P2
2022/07/01 00:00:24;;;;;;;;;;;;;;;;;;5080292;28;43461;-77
2022/07/01 00:02:50;;;;;;;;;;;;;;;;;;5080033;28;48973;-77
2022/07/01 00:05:16;;;;;;;;;;;;;;;;;;5081368;28;48149;-77
2022/07/01 00:07:43;;;;;;;;;;;;;;;;;;5073982;28;46573;-77
2022/07/01 00:10:09;;;;;;;;;;;;;;;;;;5077255;28;44136;-77
2022/07/01 00:12:35;;;;;;;;;;;;;;;;;;5066545;28;41650;-76
2022/07/01 00:15:03;;;;;;;;;;;;;;;;;;5076423;28;46754;-76
2022/07/01 00:17:29;;;;;;;;;;;;;;;;;;5077633;28;49832;-76
2022/07/01 00:19:56;;;;;;;;;;;;;;;;;;5080665;28;45033;-77
2022/07/01 00:22:22;;;;;;;;;;;;;;;;;;5076899;28;49131;-77
2022/07/01 00:24:49;;;;;;;;;;;;;;;;;;5080030;28;48743;-77
2022/07/01 00:27:15;;;;;;;;;;;;;;;;;;5081635;28;43807;-77
2022/07/01 00:29:41;;;;;;;;;;;;;;;;;;5079076;28;47152;-77
2022/07/01 00:32:08;;;;;;;;;;;;;;;;;;5077482;28;45129;-76
2022/07/01 00:34:34;;;;;;;;;;;;;;;;;;5069992;28;45595;-77
2022/07/01 00:37:01;;;;;;;;;;;;;;;;;;5077152;28;46219;-77
2022/07/01 00:39:30;;;;;;;;;;;;;;;;;;5079171;28;41833;-77
2022/07/01 00:41:57;;;;;;;;;;;;;;;;;;5080511;28;47841;-77
2022/07/01 00:44:23;;;;;;;;;;;;;;;;;;5080396;28;47171;-77
2022/07/01 00:46:49;;;;;;;;;;;;;;;;;;5074838;28;43716;-77
2022/07/01 00:49:16;;;;;;;;;;;;;;;;;;5074675;28;44694;-76
2022/07/01 00:51:42;;;;;;;;;;;;;;;;;;5075291;28;42186;-76
2022/07/01 00:54:08;;;;;;;;;;;;;;;;;;5080092;28;47552;-77
2022/07/01 00:56:34;;;;;;;;;;;;;;;;;;5079022;28;46360;-77
2022/07/01 00:59:01;;;;;;;;;;;;;;;;;;5079742;28;43603;-76
2022/07/01 01:01:27;;;;;;;;;;;;;;;;;;5077382;28;49068;-77
2022/07/01 01:03:53;;;;;;;;;;;;;;;;;;5073132;28;47459;-76
2022/07/01 01:06:20;;;;;;;;;;;;;;;;;;5072310;28;42560;-77
2022/07/01 01:08:46;;;;;;;;;;;;;;;;;;5079446;28;48158;-77
2022/07/01 01:11:13;;;;;;;;;;;;;;;;;;5078896;28;46991;-77
2022/07/01 01:13:39;;;;;;;;;;;;;;;;;;5080835;28;46145;-77
2022/07/01 01:16:06;;;;;;;;;;;;;;;;;;5074704;28;48880;-76
2022/07/01 01:18:33;;;;;;;;;;;;;;;;;;5081192;28;43683;-77
2022/07/01 01:20:59;;;;;;;;;;;;;;;;;;5080622;28;46410;-77
2022/07/01 01:23:26;;;;;;;;;;;;;;;;;;5077214;28;47083;-77
2022/07/01 01:25:52;;;;;;;;;;;;;;;;;;5077455;28;44812;-77
2022/07/01 01:28:18;;;;;;;;;;;;;;;;;;5078631;28;47369;-76
2022/07/01 01:30:44;;;;;;;;;;;;;;;;;;5082513;28;45947;-76
2022/07/01 01:33:11;;;;;;;;;;;;;;;;;;5075637;28;46512;-76
2022/07/01 01:35:38;;;;;;;;;;;;;;;;;;5078414;28;46217;-76
2022/07/01 01:38:04;;;;;;;;;;;;;;;;;;5082214;28;41424;-76
2022/07/01 01:40:30;;;;;;;;;;;;;;;;;;5081678;28;49496;-76
2022/07/01 01:42:57;;;;;;;;;;;;;;;;;;5078382;28;47253;-76
2022/07/01 01:45:23;;;;;;;;;;;;;;;;;;5078795;28;43286;-76
2022/07/01 01:47:50;;;;;;;;;;;;;;;;;;5074844;28;46267;-77
2022/07/01 01:50:16;;;;;;;;;;;;;;;;;;5081934;28;49495;-77
2022/07/01 01:52:43;;;;;;;;;;;;;;;;;;5084164;28;42000;-76
2022/07/01 01:55:09;;;;;;;;;;;;;;;;;;5080294;28;48588;-77
2022/07/01 01:57:38;;;;;;;;;;;;;;;;;;5076291;28;45513;-77
2022/07/01 02:00:04;;;;;;;;;;;;;;;;;;5083051;28;46208;-77
2022/07/01 02:02:30;;;;;;;;;;;;;;;;;;5079048;28;47211;-77
2022/07/01 02:04:57;;;;;;;;;;;;;;;;;;5080328;28;45069;-77
2022/07/01 02:07:23;;;;;;;;;;;;;;;;;;5080629;28;46775;-76
2022/07/01 02:09:49;;;;;;;;;;;;;;;;;;5078108;28;45943;-77
2022/07/01 02:12:16;;;;;;;;;;;;;;;;;;5080189;28;41017;-77
2022/07/01 02:14:42;;;;;;;;;;;;;;;;;;5075605;28;46414;-77
2022/07/01 02:17:08;;;;;;;;;;;;;;;;;;5082205;28;44637;-78
2022/07/01 02:19:35;;;;;;;;;;;;;;;;;;5081726;28;46328;-77
2022/07/01 02:22:01;;;;;;;;;;;;;;;;;;5077518;28;48434;-77
2022/07/01 02:24:27;;;;;;;;;;;;;;;;;;5079974;28;44071;-77
2022/07/01 02:26:54;;;;;;;;;;;;;;;;;;5076725;28;46246;-77
2022/07/01 02:29:20;;;;;;;;;;;;;;;;;;5078492;28;48771;-77
2022/07/01 02:31:46;;;;;;;;;;;;;;;;;;5071912;28;45819;-77
2022/07/01 02:34:12;;;;;;;;;;;;;;;;;;5080947;28;44492;-77
2022/07/01 02:36:39;;;;;;;;;;;;;;;;;;5073475;28;46847;-77
2022/07/01 02:39:05;;;;;;;;;;;;;;;;;;5082259;28;43683;-77
2022/07/01 02:41:31;;;;;;;;;;;;;;;;;;5080119;28;45057;-77
2022/07/01 02:43:57;;;;;;;;;;;;;;;;;;5078692;28;44819;-77
2022/07/01 02:46:24;;;;;;;;;;;;;;;;;;5077054;28;47503;-77
2022/07/01 02:48:50;;;;;;;;;;;;;;;;;;5074987;28;48660;-77
2022/07/01 02:51:16;;;;;;;;;;;;;;;;;;5083009;28;44704;-77
2022/07/01 02:53:43;;;;;;;;;;;;;;;;;;5078859;28;48239;-77
2022/07/01 02:56:09;;;;;;;;;;;;;;;;;;5082045;28;44479;-77
2022/07/01 02:58:41;;;;;;;;;;;;;;;;;;5081188;28;43598;-77
2022/07/01 03:01:08;;;;;;;;;;;;;;;;;;5076720;28;48186;-77
2022/07/01 03:03:34;;;;;;;;;;;;;;;;;;5083009;28;42239;-77
2022/07/01 03:06:00;;;;;;;;;;;;;;;;;;5077327;28;47490;-77
2022/07/01 03:08:27;;;;;;;;;;;;;;;;;;5077898;28;47963;-77
2022/07/01 03:10:53;;;;;;;;;;;;;;;;;;5081757;28;43852;-77
2022/07/01 03:13:19;;;;;;;;;;;;;;;;;;5082745;28;46393;-77
2022/07/01 03:15:45;;;;;;;;;;;;;;;;;;5073103;28;48989;-77
2022/07/01 03:18:12;;;;;;;;;;;;;;;;;;5082036;28;44779;-77
2022/07/01 03:20:38;;;;;;;;;;;;;;;;;;5083482;28;44008;-77
2022/07/01 03:23:05;;;;;;;;;;;;;;;;;;5075866;28;43709;-77
2022/07/01 03:25:31;;;;;;;;;;;;;;;;;;5077843;28;45914;-77
2022/07/01 03:27:57;;;;;;;;;;;;;;;;;;5080725;28;43529;-77
2022/07/01 03:30:23;;;;;;;;;;;;;;;;;;5084512;28;44620;-79
2022/07/01 03:32:50;;;;;;;;;;;;;;;;;;5081245;28;46236;-77
2022/07/01 03:38:01;;;;;;;;;;;;;;;;;;5078976;28;44461;-77
2022/07/01 03:40:28;;;;;;;;;;;;;;;;;;5079738;28;43625;-78
2022/07/01 03:42:54;;;;;;;;;;;;;;;;;;5078931;28;43386;-77
2022/07/01 03:45:20;;;;;;;;;;;;;;;;;;5075862;28;43614;-77
2022/07/01 03:47:47;;;;;;;;;;;;;;;;;;5074971;28;47581;-77
2022/07/01 03:50:13;;;;;;;;;;;;;;;;;;5074086;28;41125;-77
2022/07/01 03:52:41;;;;;;;;;;;;;;;;;;5077772;28;48779;-77
2022/07/01 03:55:08;;;;;;;;;;;;;;;;;;5077630;28;46836;-77
2022/07/01 03:57:34;;;;;;;;;;;;;;;;;;5081901;28;44825;-77
2022/07/01 04:00:00;;;;;;;;;;;;;;;;;;5078474;28;46367;-77
2022/07/01 04:02:27;;;;;;;;;;;;;;;;;;5080525;28;48480;-77
2022/07/01 04:04:55;;;;;;;;;;;;;;;;;;5080574;28;44606;-77
2022/07/01 04:07:21;;;;;;;;;;;;;;;;;;5078459;28;46736;-77
2022/07/01 04:09:47;;;;;;;;;;;;;;;;;;5076304;28;43517;-77
2022/07/01 04:12:14;;;;;;;;;;;;;;;;;;5080382;28;44972;-77
2022/07/01 04:14:40;;;;;;;;;;;;;;;;;;5077975;28;48222;-77
2022/07/01 04:17:07;;;;;;;;;;;;;;;;;;5067776;28;44844;-77
2022/07/01 04:19:34;;;;;;;;;;;;;;;;;;5079720;28;44770;-77
2022/07/01 04:24:45;;;;;;;;;;;;;;;;;;5079982;28;43611;-78
2022/07/01 04:27:11;;;;;;;;;;;;;;;;;;5078771;28;48510;-77
2022/07/01 04:29:38;;;;;;;;;;;;;;;;;;5079738;28;46229;-77
2022/07/01 04:32:04;;;;;;;;;;;;;;;;;;5077226;28;44609;-77
2022/07/01 04:34:30;;;;;;;;;;;;;;;;;;5081843;28;46815;-77
2022/07/01 04:36:57;;;;;;;;;;;;;;;;;;5074614;28;43755;-77
2022/07/01 04:39:23;;;;;;;;;;;;;;;;;;5078988;28;46299;-77
2022/07/01 04:42:01;;;;;;;;;;;;;;;;;;5077093;28;44654;-77
2022/07/01 04:44:28;;;;;;;;;;;;;;;;;;5076209;28;44753;-78
2022/07/01 04:46:54;;;;;;;;;;;;;;;;;;5075878;28;46736;-78
2022/07/01 04:49:20;;;;;;;;;;;;;;;;;;5075010;28;43735;-77
2022/07/01 04:51:47;;;;;;;;;;;;;;;;;;5078783;28;44626;-77
2022/07/01 04:54:13;;;;;;;;;;;;;;;;;;5082784;28;47951;-77
2022/07/01 04:56:39;;;;;;;;;;;;;;;;;;5082637;28;44812;-77
2022/07/01 04:59:09;;;;;;;;;;;;;;;;;;5082528;28;46658;-77
2022/07/01 05:01:36;;;;;;;;;;;;;;;;;;5080602;28;46961;-77
2022/07/01 05:04:02;;;;;;;;;;;;;;;;;;5081715;28;44157;-77
2022/07/01 05:06:28;;;;;;;;;;;;;;;;;;5079547;28;47796;-77
2022/07/01 05:08:55;;;;;;;;;;;;;;;;;;5077067;28;47017;-77
2022/07/01 05:11:21;;;;;;;;;;;;;;;;;;5083677;28;46412;-77
2022/07/01 05:13:47;;;;;;;;;;;;;;;;;;5079090;28;48442;-78
2022/07/01 05:16:14;;;;;;;;;;;;;;;;;;5079737;28;41761;-78
2022/07/01 05:24:10;;;;;;;;;;;;;;;;;;5084518;28;43362;-78
2022/07/01 05:26:36;;;;;;;;;;;;;;;;;;5081944;28;47431;-78
2022/07/01 05:29:03;;;;;;;;;;;;;;;;;;5079606;28;49234;-78
2022/07/01 05:31:29;;;;;;;;;;;;;;;;;;5080199;28;43749;-78
2022/07/01 05:33:55;;;;;;;;;;;;;;;;;;5084200;28;48147;-77
2022/07/01 05:36:26;;;;;;;;;;;;;;;;;;5078061;28;44804;-78
2022/07/01 05:38:52;;;;;;;;;;;;;;;;;;5074455;28;47371;-78
2022/07/01 05:41:18;;;;;;;;;;;;;;;;;;5079510;28;48122;-78
2022/07/01 05:43:45;;;;;;;;;;;;;;;;;;5082727;28;42615;-78
2022/07/01 05:46:11;;;;;;;;;;;;;;;;;;5081561;28;45116;-78
2022/07/01 05:48:38;;;;;;;;;;;;;;;;;;5077339;28;45436;-77
2022/07/01 05:51:15;;;;;;;;;;;;;;;;;;5082705;28;43169;-78
2022/07/01 05:53:44;;;;;;;;;;;;;;;;;;5083979;28;47345;-78
2022/07/01 05:56:10;;;;;;;;;;;;;;;;;;5072537;28;42318;-78
2022/07/01 05:58:36;;;;;;;;;;;;;;;;;;5084376;28;47569;-78
2022/07/01 06:01:03;;;;;;;;;;;;;;;;;;5077901;28;46940;-78
2022/07/01 06:03:34;;;;;;;;;;;;;;;;;;5074489;28;43621;-78
2022/07/01 06:06:01;;;;;;;;;;;;;;;;;;5081920;28;47501;-78
2022/07/01 06:08:27;;;;;;;;;;;;;;;;;;5082430;28;48123;-78
2022/07/01 06:10:54;;;;;;;;;;;;;;;;;;5075206;28;42680;-78
2022/07/01 06:13:20;;;;;;;;;;;;;;;;;;5079960;28;48559;-78
2022/07/01 06:15:47;;;;;;;;;;;;;;;;;;5083518;28;45301;-78
2022/07/01 06:18:14;;;;;;;;;;;;;;;;;;5082560;28;45594;-78
2022/07/01 06:20:41;;;;;;;;;;;;;;;;;;5082797;28;48090;-78
2022/07/01 06:23:07;;;;;;;;;;;;;;;;;;5077460;28;43779;-78
2022/07/01 06:25:33;;;;;;;;;;;;;;;;;;5079992;28;47305;-78
2022/07/01 06:28:00;;;;;;;;;;;;;;;;;;5082342;28;46921;-78
2022/07/01 06:30:26;;;;;;;;;;;;;;;;;;5073654;28;43700;-78
2022/07/01 06:32:52;;;;;;;;;;;;;;;;;;5085174;28;47611;-79
2022/07/01 06:35:18;;;;;;;;;;;;;;;;;;5080800;28;44612;-79
2022/07/01 06:37:45;;;;;;;;;;;;;;;;;;5074503;28;45127;-79
2022/07/01 06:40:12;;;;;;;;;;;;;;;;;;5081869;28;47519;-79
2022/07/01 06:42:41;;;;;;;;;;;;;;;;;;5085026;28;44766;-78
2022/07/01 06:45:07;;;;;;;;;;;;;;;;;;5076407;28;48042;-79
2022/07/01 06:47:33;;;;;;;;;;;;;;;;;;5074203;28;47295;-79
2022/07/01 06:50:00;;;;;;;;;;;;;;;;;;5081769;28;43036;-79
2022/07/01 06:52:29;;;;;;;;;;;;;;;;;;5077661;28;45887;-79
2022/07/01 06:54:55;;;;;;;;;;;;;;;;;;5078079;28;48063;-79
2022/07/01 06:57:22;;;;;;;;;;;;;;;;;;5070820;28;44721;-79
2022/07/01 06:59:49;;;;;;;;;;;;;;;;;;5074992;28;45573;-79
2022/07/01 07:02:15;;;;;;;;;;;;;;;;;;5082567;28;41708;-78
2022/07/01 07:04:41;;;;;;;;;;;;;;;;;;5079948;28;46300;-78
2022/07/01 07:07:24;;;;;;;;;;;;;;;;;;5082482;28;46605;-78
2022/07/01 07:09:50;;;;;;;;;;;;;;;;;;5072794;28;44081;-78
2022/07/01 07:12:17;;;;;;;;;;;;;;;;;;5084511;28;47900;-78
2022/07/01 07:14:43;;;;;;;;;;;;;;;;;;5079994;28;46843;-79
2022/07/01 07:17:09;;;;;;;;;;;;;;;;;;5082824;28;43522;-79
2022/07/01 07:19:35;;;;;;;;;;;;;;;;;;5083162;28;48587;-79
2022/07/01 07:22:02;;;;;;;;;;;;;;;;;;5079679;28;41349;-79
2022/07/01 07:24:28;;;;;;;;;;;;;;;;;;5085329;28;44277;-79
2022/07/01 07:26:54;;;;;;;;;;;;;;;;;;5082844;28;48103;-79
2022/07/01 07:29:20;;;;;;;;;;;;;;;;;;5088830;28;43327;-80
2022/07/01 07:31:47;;;;;;;;;;;;;;;;;;5091002;28;47696;-80
2022/07/01 07:34:13;;;;;;;;;;;;;;;;;;5083604;28;47191;-81
2022/07/01 07:36:39;;;;;;;;;;;;;;;;;;5087442;28;42445;-80
2022/07/01 07:39:06;;;;;;;;;;;;;;;;;;5078019;28;48717;-80
2022/07/01 07:41:32;;;;;;;;;;;;;;;;;;5092497;28;35553;-79
2022/07/01 07:43:58;;;;;;;;;;;;;;;;;;5086099;28;43896;-80
2022/07/01 07:46:25;;;;;;;;;;;;;;;;;;5081436;28;47291;-79
2022/07/01 07:48:51;;;;;;;;;;;;;;;;;;5090005;28;45565;-80
2022/07/01 07:51:18;;;;;;;;;;;;;;;;;;5084455;28;46377;-80
2022/07/01 07:53:50;;;;;;;;;;;;;;;;;;5084687;28;48316;-81
2022/07/01 07:56:17;;;;;;;;;;;;;;;;;;5067928;28;43737;-81
2022/07/01 07:58:43;;;;;;;;;;;;;;;;;;5089087;28;43986;-80
2022/07/01 08:01:09;;;;;;;;;;;;;;;;;;5087354;28;45169;-80
2022/07/01 08:03:36;;;;;;;;;;;;;;;;;;5090049;28;46410;-80
2022/07/01 08:06:02;;;;;;;;;;;;;;;;;;5090002;28;45896;-80
2022/07/01 08:08:29;;;;;;;;;;;;;;;;;;5075154;28;42583;-80
2022/07/01 08:10:55;;;;;;;;;;;;;;;;;;5080346;28;49366;-81
2022/07/01 08:13:22;;;;;;;;;;;;;;;;;;5092328;28;46453;-80
2022/07/01 08:15:48;;;;;;;;;;;;;;;;;;5092301;28;42599;-81
2022/07/01 08:18:15;;;;;;;;;;;;;;;;;;5077596;28;46571;-81
2022/07/01 08:20:41;;;;;;;;;;;;;;;;;;5082728;28;45145;-80
2022/07/01 08:23:08;;;;;;;;;;;;;;;;;;5089730;28;41126;-82
2022/07/01 08:25:35;;;;;;;;;;;;;;;;;;5082309;28;45109;-81
2022/07/01 08:28:02;;;;;;;;;;;;;;;;;;5093017;28;43052;-81
2022/07/01 08:30:28;;;;;;;;;;;;;;;;;;5074633;28;45135;-82
2022/07/01 08:32:55;;;;;;;;;;;;;;;;;;5091994;28;45420;-82
2022/07/01 08:35:23;;;;;;;;;;;;;;;;;;5079965;28;32223;-82
2022/07/01 08:37:52;;;;;;;;;;;;;;;;;;5083827;28;46987;-82
2022/07/01 08:40:19;;;;;;;;;;;;;;;;;;5072596;28;46514;-81
2022/07/01 08:42:45;;;;;;;;;;;;;;;;;;5079841;28;43962;-81
2022/07/01 08:45:12;;;;;;;;;;;;;;;;;;5085309;28;44802;-80
2022/07/01 08:47:39;;;;;;;;;;;;;;;;;;5093590;28;41948;-80
2022/07/01 08:50:05;;;;;;;;;;;;;;;;;;5078683;28;46664;-82
2022/07/01 08:52:36;;;;;;;;;;;;;;;;;;5081965;28;48059;-82
2022/07/01 08:55:02;;;;;;;;;;;;;;;;;;5087916;28;46255;-80
2022/07/01 08:57:30;;;;;;;;;;;;;;;;;;5089155;28;49313;-81
2022/07/01 08:59:57;;;;;;;;;;;;;;;;;;5072020;28;44768;-81
2022/07/01 09:02:24;;;;;;;;;;;;;;;;;;5085092;28;42306;-80
2022/07/01 09:04:50;;;;;;;;;;;;;;;;;;5091027;28;47662;-81
2022/07/01 09:07:16;;;;;;;;;;;;;;;;;;5090788;28;45451;-80
2022/07/01 09:09:44;;;;;;;;;;;;;;;;;;5074915;28;48389;-80
2022/07/01 09:12:11;;;;;;;;;;;;;;;;;;5085970;28;46972;-81
2022/07/01 09:14:39;;;;;;;;;;;;;;;;;;5087527;28;43254;-82
2022/07/01 09:17:06;;;;;;;;;;;;;;;;;;5085549;28;48512;-80
2022/07/01 09:19:32;;;;;;;;;;;;;;;;;;5072665;28;46871;-82
2022/07/01 09:22:00;;;;;;;;;;;;;;;;;;5090632;28;44951;-82
2022/07/01 09:24:27;;;;;;;;;;;;;;;;;;5089543;28;45327;-82
2022/07/01 09:26:53;;;;;;;;;;;;;;;;;;5092730;28;47965;-81
2022/07/01 09:29:21;;;;;;;;;;;;;;;;;;5096341;28;43699;-82
2022/07/01 09:31:48;;;;;;;;;;;;;;;;;;5090936;28;48374;-82
2022/07/01 09:34:15;;;;;;;;;;;;;;;;;;5090983;28;45434;-82
2022/07/01 09:36:44;;;;;;;;;;;;;;;;;;5078909;28;45218;-84
2022/07/01 09:39:11;;;;;;;;;;;;;;;;;;5087164;28;47309;-83
2022/07/01 09:41:57;;;;;;;;;;;;;;;;;;5087811;28;20614;-82
2022/07/01 09:44:24;;;;;;;;;;;;;;;;;;5095735;28;46899;-81
2022/07/01 09:46:50;;;;;;;;;;;;;;;;;;5094075;28;47197;-83
2022/07/01 09:49:16;;;;;;;;;;;;;;;;;;5094679;28;44788;-82
2022/07/01 09:51:45;;;;;;;;;;;;;;;;;;5096699;28;46867;-81
2022/07/01 09:54:11;;;;;;;;;;;;;;;;;;5093798;28;43727;-82
2022/07/01 09:56:37;;;;;;;;;;;;;;;;;;5092375;28;47244;-84
2022/07/01 09:59:04;;;;;;;;;;;;;;;;;;5095211;28;46094;-82
2022/07/01 10:01:30;;;;;;;;;;;;;;;;;;5094337;28;44289;-81
2022/07/01 10:03:57;;;;;;;;;;;;;;;;;;5094868;28;45309;-83
2022/07/01 10:06:23;;;;;;;;;;;;;;;;;;5092784;28;46984;-83
2022/07/01 10:08:52;;;;;;;;;;;;;;;;;;5097927;28;44303;-82
2022/07/01 10:11:18;;;;;;;;;;;;;;;;;;5086168;28;48961;-81
2022/07/01 10:13:44;;;;;;;;;;;;;;;;;;5086698;28;42129;-83
2022/07/01 10:16:15;;;;;;;;;;;;;;;;;;5095908;28;46671;-81
2022/07/01 10:18:42;;;;;;;;;;;;;;;;;;5094012;28;46339;-82
2022/07/01 10:21:08;;;;;;;;;;;;;;;;;;5093251;28;42103;-82
2022/07/01 10:23:34;;;;;;;;;;;;;;;;;;5092409;28;46539;-83
2022/07/01 10:26:01;;;;;;;;;;;;;;;;;;5087102;28;47528;-80
2022/07/01 10:28:27;;;;;;;;;;;;;;;;;;5094484;28;42762;-81
2022/07/01 10:30:53;;;;;;;;;;;;;;;;;;5094954;28;46983;-81
2022/07/01 10:33:20;;;;;;;;;;;;;;;;;;5095180;28;49826;-81
2022/07/01 10:35:46;;;;;;;;;;;;;;;;;;5097565;28;47861;-81
2022/07/01 10:38:13;;;;;;;;;;;;;;;;;;5093442;28;46146;-82
2022/07/01 10:40:45;;;;;;;;;;;;;;;;;;5094430;28;42391;-81
2022/07/01 10:43:11;;;;;;;;;;;;;;;;;;5095068;28;46345;-81
2022/07/01 10:45:42;;;;;;;;;;;;;;;;;;5091779;28;49837;-81
2022/07/01 10:48:08;;;;;;;;;;;;;;;;;;5095813;28;44859;-82
2022/07/01 10:50:35;;;;;;;;;;;;;;;;;;5095645;28;45109;-82
2022/07/01 10:53:01;;;;;;;;;;;;;;;;;;5098637;28;46901;-82
2022/07/01 10:55:27;;;;;;;;;;;;;;;;;;5096527;28;43897;-82
2022/07/01 10:57:54;;;;;;;;;;;;;;;;;;5090728;28;49133;-82
2022/07/01 11:00:20;;;;;;;;;;;;;;;;;;5085726;28;43225;-82
2022/07/01 11:02:46;;;;;;;;;;;;;;;;;;5097170;28;47302;-81
2022/07/01 11:05:13;;;;;;;;;;;;;;;;;;5098959;28;48496;-82
2022/07/01 11:07:39;;;;;;;;;;;;;;;;;;5095941;28;43697;-81
2022/07/01 11:10:05;;;;;;;;;;;;;;;;;;5096657;28;47728;-82
2022/07/01 11:12:32;;;;;;;;;;;;;;;;;;5094029;28;46964;-83
2022/07/01 11:15:01;;;;;;;;;;;;;;;;;;5094485;28;43476;-83
2022/07/01 11:17:28;;;;;;;;;;;;;;;;;;5096555;28;47183;-83
2022/07/01 11:19:56;;;;;;;;;;;;;;;;;;5093324;28;44959;-83
2022/07/01 11:22:22;;;;;;;;;;;;;;;;;;5093320;28;47619;-83
2022/07/01 11:24:48;;;;;;;;;;;;;;;;;;5095214;28;49876;-84
2022/07/01 11:27:15;;;;;;;;;;;;;;;;;;5095147;28;44649;-83
2022/07/01 11:29:41;;;;;;;;;;;;;;;;;;5092216;28;47152;-82
2022/07/01 11:32:07;;;;;;;;;;;;;;;;;;5081326;28;45236;-83
2022/07/01 11:34:34;;;;;;;;;;;;;;;;;;5088825;28;42216;-82
2022/07/01 11:39:47;;;;;;;;;;;;;;;;;;5098173;28;46114;-84
2022/07/01 11:42:14;;;;;;;;;;;;;;;;;;5095612;28;44892;-83
2022/07/01 11:44:40;;;;;;;;;;;;;;;;;;5089378;28;46841;-80
2022/07/01 11:47:06;;;;;;;;;;;;;;;;;;5077541;28;44796;-81
2022/07/01 11:49:32;;;;;;;;;;;;;;;;;;5069570;28;47489;-76
2022/07/01 11:51:59;;;;;;;;;;;;;;;;;;5080422;28;47319;-77
2022/07/01 11:54:25;;;;;;;;;;;;;;;;;;5074806;28;45646;-79
2022/07/01 11:56:51;;;;;;;;;;;;;;;;;;5084445;28;46147;-79
2022/07/01 11:59:18;;;;;;;;;;;;;;;;;;5065020;28;45286;-81
2022/07/01 12:01:45;;;;;;;;;;;;;;;;;;5073753;28;46398;-81
2022/07/01 12:04:11;;;;;;;;;;;;;;;;;;5080247;28;48339;-80
2022/07/01 12:06:42;;;;;;;;;;;;;;;;;;5087198;28;42752;-81
2022/07/01 12:09:08;;;;;;;;;;;;;;;;;;5078498;28;46322;-80
2022/07/01 12:11:34;;;;;;;;;;;;;;;;;;5067032;28;45472;-80
2022/07/01 12:14:04;;;;;;;;;;;;;;;;;;5070725;28;42434;-79
2022/07/01 12:16:30;;;;;;;;;;;;;;;;;;5069358;28;46400;-79
2022/07/01 12:18:57;;;;;;;;;;;;;;;;;;5066657;28;47265;-79
2022/07/01 12:21:24;;;;;;;;;;;;;;;;;;5079287;28;45929;-79
2022/07/01 12:23:50;;;;;;;;;;;;;;;;;;5070138;28;44956;-80
2022/07/01 12:26:17;;;;;;;;;;;;;;;;;;5077876;28;44974;-79
2022/07/01 12:28:44;;;;;;;;;;;;;;;;;;5068250;28;45473;-77
2022/07/01 12:31:10;;;;;;;;;;;;;;;;;;5082887;28;46941;-78
2022/07/01 12:33:37;;;;;;;;;;;;;;;;;;5081360;28;43900;-82
2022/07/01 12:36:03;;;;;;;;;;;;;;;;;;5082601;28;45285;-80
2022/07/01 12:38:29;;;;;;;;;;;;;;;;;;5083769;28;47053;-78
2022/07/01 12:40:55;;;;;;;;;;;;;;;;;;5082155;28;45562;-78
2022/07/01 12:43:22;;;;;;;;;;;;;;;;;;5074580;28;46546;-78
2022/07/01 12:45:48;;;;;;;;;;;;;;;;;;5081138;28;42061;-79
2022/07/01 12:48:14;;;;;;;;;;;;;;;;;;5082484;28;47858;-80
2022/07/01 12:50:40;;;;;;;;;;;;;;;;;;5085629;28;48397;-80
2022/07/01 12:53:07;;;;;;;;;;;;;;;;;;5098873;28;45213;-84
2022/07/01 12:55:33;;;;;;;;;;;;;;;;;;5086477;28;44641;-79
2022/07/01 12:57:59;;;;;;;;;;;;;;;;;;5075405;28;46606;-80
2022/07/01 13:00:27;;;;;;;;;;;;;;;;;;5068265;28;44230;-78
2022/07/01 13:02:53;;;;;;;;;;;;;;;;;;5082964;28;46240;-79
2022/07/01 13:05:19;;;;;;;;;;;;;;;;;;5082611;28;48426;-79
2022/07/01 13:07:46;;;;;;;;;;;;;;;;;;5084352;28;46345;-79
2022/07/01 13:10:12;;;;;;;;;;;;;;;;;;5084610;28;46479;-79
2022/07/01 13:12:38;;;;;;;;;;;;;;;;;;5083401;28;44067;-79
2022/07/01 13:15:04;;;;;;;;;;;;;;;;;;5085413;28;47030;-82
2022/07/01 13:17:31;;;;;;;;;;;;;;;;;;5086616;28;48136;-83
2022/07/01 13:20:10;;;;;;;;;;;;;;;;;;5090012;28;44040;-79
2022/07/01 13:22:41;;;;;;;;;;;;;;;;;;5088259;28;46879;-79
2022/07/01 13:25:24;;;;;;;;;;;;;;;;;;5070090;28;19970;-83
2022/07/01 13:27:58;;;;;;;;;;;;;;;;;;5085239;28;42730;-79
2022/07/01 13:30:36;;;;;;;;;;;;;;;;;;5089429;28;49244;-82
2022/07/01 13:33:07;;;;;;;;;;;;;;;;;;5086135;28;43442;-79
2022/07/01 13:35:36;;;;;;;;;;;;;;;;;;5087989;28;45526;-82
2022/07/01 13:38:02;;;;;;;;;;;;;;;;;;5085747;28;46877;-82
2022/07/01 13:40:28;;;;;;;;;;;;;;;;;;5082688;28;41842;-79
2022/07/01 13:42:55;;;;;;;;;;;;;;;;;;5087288;28;48738;-83
2022/07/01 13:45:21;;;;;;;;;;;;;;;;;;5088801;28;48296;-79
2022/07/01 13:47:47;;;;;;;;;;;;;;;;;;5087947;28;42560;-82
2022/07/01 13:50:18;;;;;;;;;;;;;;;;;;5086379;28;47432;-85
2022/07/01 13:52:45;;;;;;;;;;;;;;;;;;5089338;28;42883;-84
2022/07/01 13:55:14;;;;;;;;;;;;;;;;;;5096905;28;47678;-83
2022/07/01 13:57:40;;;;;;;;;;;;;;;;;;5097983;28;49617;-85
2022/07/01 14:00:07;;;;;;;;;;;;;;;;;;5099216;28;42012;-81
2022/07/01 14:02:35;;;;;;;;;;;;;;;;;;5091305;28;44999;-84
2022/07/01 14:05:01;;;;;;;;;;;;;;;;;;5085648;28;46438;-81
2022/07/01 14:07:27;;;;;;;;;;;;;;;;;;5081673;28;43649;-82
2022/07/01 14:09:53;;;;;;;;;;;;;;;;;;5080763;28;45637;-82
2022/07/01 14:12:20;;;;;;;;;;;;;;;;;;5080448;28;46644;-80
2022/07/01 14:14:53;;;;;;;;;;;;;;;;;;5076696;28;49220;-80
2022/07/01 14:17:19;;;;;;;;;;;;;;;;;;5076624;28;48771;-78
2022/07/01 14:19:45;;;;;;;;;;;;;;;;;;5085584;28;44875;-78
2022/07/01 14:22:12;;;;;;;;;;;;;;;;;;5085836;28;47660;-78
2022/07/01 14:24:38;;;;;;;;;;;;;;;;;;5082309;28;45187;-81
2022/07/01 14:27:05;;;;;;;;;;;;;;;;;;5086893;28;43715;-81
2022/07/01 14:29:31;;;;;;;;;;;;;;;;;;5081055;28;46786;-83
2022/07/01 14:31:59;;;;;;;;;;;;;;;;;;5085169;28;49397;-80
2022/07/01 14:34:26;;;;;;;;;;;;;;;;;;5085610;28;45279;-79
2022/07/01 14:36:52;;;;;;;;;;;;;;;;;;5085991;28;47658;-79
2022/07/01 14:39:18;;;;;;;;;;;;;;;;;;5081028;28;42089;-78
2022/07/01 14:41:49;;;;;;;;;;;;;;;;;;5078777;28;47258;-82
2022/07/01 14:44:21;;;;;;;;;;;;;;;;;;5082335;28;50147;-78
2022/07/01 14:46:47;;;;;;;;;;;;;;;;;;5081346;28;45980;-82
2022/07/01 14:49:15;;;;;;;;;;;;;;;;;;5083690;28;46050;-78
2022/07/01 14:51:41;;;;;;;;;;;;;;;;;;5086967;28;49561;-82
2022/07/01 14:54:08;;;;;;;;;;;;;;;;;;5087003;28;43659;-81
2022/07/01 14:56:34;;;;;;;;;;;;;;;;;;5085930;28;45536;-81
2022/07/01 14:59:00;;;;;;;;;;;;;;;;;;5081771;28;44447;-80
2022/07/01 15:01:30;;;;;;;;;;;;;;;;;;5081027;28;44777;-81
2022/07/01 15:03:56;;;;;;;;;;;;;;;;;;5082971;28;49419;-82
2022/07/01 15:06:23;;;;;;;;;;;;;;;;;;5075643;28;42802;-82
2022/07/01 15:08:49;;;;;;;;;;;;;;;;;;5084077;28;46009;-79
2022/07/01 15:11:15;;;;;;;;;;;;;;;;;;5085217;28;45637;-79
2022/07/01 15:13:43;;;;;;;;;;;;;;;;;;5086290;28;43821;-78
2022/07/01 15:16:09;;;;;;;;;;;;;;;;;;5073486;28;45126;-81
2022/07/01 15:18:40;;;;;;;;;;;;;;;;;;5078523;28;46833;-81
2022/07/01 15:21:06;;;;;;;;;;;;;;;;;;5083589;28;46647;-79
2022/07/01 15:23:32;;;;;;;;;;;;;;;;;;5082466;28;46646;-78
2022/07/01 15:25:59;;;;;;;;;;;;;;;;;;5080378;28;44122;-80
2022/07/01 15:28:25;;;;;;;;;;;;;;;;;;5084792;28;43490;-80
2022/07/01 15:30:51;;;;;;;;;;;;;;;;;;5084925;28;47096;-79
2022/07/01 15:33:18;;;;;;;;;;;;;;;;;;5077745;28;43694;-83
2022/07/01 15:35:44;;;;;;;;;;;;;;;;;;5082353;28;46294;-82
2022/07/01 15:38:10;;;;;;;;;;;;;;;;;;5082969;28;48273;-83
2022/07/01 15:40:36;;;;;;;;;;;;;;;;;;5084214;28;46330;-80
2022/07/01 15:43:03;;;;;;;;;;;;;;;;;;5082706;28;48038;-80
2022/07/01 15:45:29;;;;;;;;;;;;;;;;;;5079305;28;42126;-79
2022/07/01 15:48:05;;;;;;;;;;;;;;;;;;5086484;28;43618;-83
2022/07/01 15:50:31;;;;;;;;;;;;;;;;;;5075317;28;49114;-83
2022/07/01 15:52:57;;;;;;;;;;;;;;;;;;5086757;28;45461;-86
2022/07/01 15:55:24;;;;;;;;;;;;;;;;;;5099609;28;44719;-83
2022/07/01 15:57:52;;;;;;;;;;;;;;;;;;5091185;28;45927;-85
2022/07/01 16:00:20;;;;;;;;;;;;;;;;;;5098286;28;45563;-85
2022/07/01 16:03:06;;;;;;;;;;;;;;;;;;5096101;28;45768;-85
2022/07/01 16:05:33;;;;;;;;;;;;;;;;;;5100614;28;43324;-86
2022/07/01 16:08:00;;;;;;;;;;;;;;;;;;5098177;28;44980;-83
2022/07/01 16:10:26;;;;;;;;;;;;;;;;;;5096247;28;45284;-85
2022/07/01 16:12:52;;;;;;;;;;;;;;;;;;5095931;28;41936;-82
2022/07/01 16:15:20;;;;;;;;;;;;;;;;;;5091690;28;45121;-84
2022/07/01 16:17:46;;;;;;;;;;;;;;;;;;5098187;28;48267;-84
2022/07/01 16:20:12;;;;;;;;;;;;;;;;;;5092323;28;45206;-84
2022/07/01 16:22:38;;;;;;;;;;;;;;;;;;5079766;28;48432;-84
2022/07/01 16:25:05;;;;;;;;;;;;;;;;;;5078578;28;43777;-80
2022/07/01 16:27:33;;;;;;;;;;;;;;;;;;5081413;28;47672;-78
2022/07/01 16:30:01;;;;;;;;;;;;;;;;;;5083124;28;47837;-78
2022/07/01 16:32:28;;;;;;;;;;;;;;;;;;5079099;28;41765;-81
2022/07/01 16:34:54;;;;;;;;;;;;;;;;;;5084402;28;46338;-79
2022/07/01 16:37:21;;;;;;;;;;;;;;;;;;5084032;28;47513;-81
2022/07/01 16:39:55;;;;;;;;;;;;;;;;;;5088648;28;45219;-86
2022/07/01 16:42:24;;;;;;;;;;;;;;;;;;5076831;28;45124;-81
2022/07/01 16:44:50;;;;;;;;;;;;;;;;;;5079446;28;41921;-82
2022/07/01 16:47:16;;;;;;;;;;;;;;;;;;5081474;28;46651;-79
2022/07/01 16:49:43;;;;;;;;;;;;;;;;;;5079360;28;46842;-81
2022/07/01 16:52:09;;;;;;;;;;;;;;;;;;5079409;28;42017;-79
2022/07/01 16:54:35;;;;;;;;;;;;;;;;;;5079876;28;46371;-83
2022/07/01 16:57:02;;;;;;;;;;;;;;;;;;5083019;28;48602;-82